createdAt,value
2023-02-14T00:01:15.988Z,15.76
2023-02-14T00:03:45.224Z,15.76
2023-02-14T00:06:14.158Z,15.68
2023-02-14T00:08:45.221Z,15.74
2023-02-14T00:11:14.336Z,15.71
2023-02-14T00:14:01.708Z,15.69
2023-02-14T00:16:28.784Z,15.67
2023-02-14T00:19:04.685Z,15.66
2023-02-14T00:21:37.036Z,15.61
2023-02-14T00:24:12.630Z,15.60
2023-02-14T00:26:40.525Z,15.60
2023-02-14T00:29:13.404Z,15.58
2023-02-14T00:31:41.243Z,15.56
2023-02-14T00:34:10.092Z,15.54
2023-02-14T00:36:37.780Z,15.51
2023-02-14T00:39:07.631Z,15.48
2023-02-14T00:41:34.844Z,15.48
2023-02-14T00:44:02.510Z,15.46
2023-02-14T00:46:29.538Z,15.45
2023-02-14T00:48:56.801Z,15.44
2023-02-14T00:51:24.630Z,15.42
2023-02-14T00:53:52.037Z,15.41
2023-02-14T00:56:20.226Z,15.39
2023-02-14T00:58:47.615Z,15.40
2023-02-14T01:01:16.155Z,15.38
2023-02-14T01:03:43.079Z,15.34
2023-02-14T01:06:10.298Z,15.36
2023-02-14T01:08:37.166Z,15.34
2023-02-14T01:11:15.998Z,15.34
2023-02-14T01:13:43.892Z,15.34
2023-02-14T01:16:13.896Z,15.31
2023-02-14T01:18:41.755Z,15.32
2023-02-14T01:21:22.034Z,15.31
2023-02-14T01:23:51.264Z,15.29
2023-02-14T01:26:19.142Z,15.29
2023-02-14T01:28:46.779Z,15.27
2023-02-14T01:31:19.416Z,15.26
2023-02-14T01:33:47.706Z,15.24
2023-02-14T01:36:24.005Z,15.24
2023-02-14T01:38:56.497Z,15.24
2023-02-14T01:41:25.480Z,15.25
2023-02-14T01:43:52.301Z,15.21
2023-02-14T01:46:19.509Z,15.21
2023-02-14T01:48:47.486Z,15.22
2023-02-14T01:51:17.095Z,15.14
2023-02-14T01:53:44.122Z,15.19
2023-02-14T01:56:15.370Z,15.11
2023-02-14T01:58:45.321Z,15.18
2023-02-14T02:01:18.249Z,15.19
2023-02-14T02:03:50.106Z,15.18
2023-02-14T02:06:26.630Z,15.17
2023-02-14T02:09:12.435Z,15.17
2023-02-14T02:11:40.474Z,15.19
2023-02-14T02:14:13.884Z,15.18
2023-02-14T02:16:40.759Z,15.18
2023-02-14T02:19:26.338Z,15.13
2023-02-14T02:22:25.383Z,15.18
2023-02-14T02:24:58.171Z,15.18
2023-02-14T02:27:27.908Z,15.21
2023-02-14T02:30:07.069Z,15.20
2023-02-14T02:33:09.213Z,15.23
2023-02-14T02:35:54.952Z,15.21
2023-02-14T02:39:01.012Z,15.21
2023-02-14T02:41:27.875Z,15.22
2023-02-14T02:44:03.828Z,15.21
2023-02-14T02:47:18.408Z,15.21
2023-02-14T02:50:24.063Z,15.16
2023-02-14T02:53:04.531Z,15.22
2023-02-14T02:56:13.534Z,15.22
2023-02-14T02:58:45.564Z,15.15
2023-02-14T03:01:17.538Z,15.26
2023-02-14T03:04:07.582Z,15.16
2023-02-14T03:06:34.780Z,15.17
2023-02-14T03:09:13.730Z,15.28
2023-02-14T03:12:05.169Z,15.29
2023-02-14T03:14:50.773Z,15.31
2023-02-14T03:17:30.194Z,15.30
2023-02-14T03:20:35.624Z,15.30
2023-02-14T03:23:29.812Z,15.33
2023-02-14T03:26:11.848Z,15.26
2023-02-14T03:29:35.678Z,15.27
2023-02-14T03:32:24.128Z,15.33
2023-02-14T03:35:10.593Z,15.27
2023-02-14T03:37:41.249Z,15.32
2023-02-14T03:40:18.076Z,15.34
2023-02-14T03:42:54.877Z,15.36
2023-02-14T03:45:35.858Z,15.37
2023-02-14T03:48:08.884Z,15.31
2023-02-14T03:50:38.958Z,15.36
2023-02-14T03:53:09.283Z,15.38
2023-02-14T03:55:49.719Z,15.39
2023-02-14T03:58:48.386Z,15.40
2023-02-14T04:01:23.569Z,15.39
2023-02-14T04:03:52.824Z,15.38
2023-02-14T04:06:20.835Z,15.33
2023-02-14T04:08:47.878Z,15.34
2023-02-14T04:11:15.344Z,15.41
2023-02-14T04:13:42.210Z,15.35
2023-02-14T04:16:09.637Z,15.42
2023-02-14T04:18:55.246Z,15.39
2023-02-14T04:21:22.213Z,15.45
2023-02-14T04:23:49.092Z,15.48
2023-02-14T04:26:15.928Z,15.46
2023-02-14T04:28:42.742Z,15.48
2023-02-14T04:31:11.682Z,15.46
2023-02-14T04:33:39.555Z,15.47
2023-02-14T04:36:06.774Z,15.47
2023-02-14T04:38:33.825Z,15.47
2023-02-14T04:41:01.352Z,15.47
2023-02-14T04:43:28.823Z,15.47
2023-02-14T04:45:55.719Z,15.48
2023-02-14T04:48:22.684Z,15.48
2023-02-14T04:50:55.680Z,15.42
2023-02-14T04:53:22.810Z,15.48
2023-02-14T04:55:50.634Z,15.47
2023-02-14T04:58:18.195Z,15.43
2023-02-14T05:00:45.294Z,15.47
2023-02-14T05:03:12.256Z,15.44
2023-02-14T05:05:39.088Z,15.49
2023-02-14T05:08:05.992Z,15.42
2023-02-14T05:10:32.903Z,15.50
2023-02-14T05:13:01.330Z,15.44
2023-02-14T05:15:28.216Z,15.51
2023-02-14T05:17:55.011Z,15.53
2023-02-14T05:20:21.944Z,15.49
2023-02-14T05:22:48.814Z,15.54
2023-02-14T05:25:15.666Z,15.52
2023-02-14T05:27:42.532Z,15.54
2023-02-14T05:30:10.287Z,15.55
2023-02-14T05:32:37.169Z,15.54
2023-02-14T05:35:04.776Z,15.49
2023-02-14T05:37:31.887Z,15.48
2023-02-14T05:39:58.764Z,15.52
2023-02-14T05:42:25.653Z,15.51
2023-02-14T05:44:52.465Z,15.53
2023-02-14T05:47:19.332Z,15.52
2023-02-14T05:49:46.145Z,15.55
2023-02-14T05:52:12.973Z,15.53
2023-02-14T05:54:39.796Z,15.47
2023-02-14T05:57:06.704Z,15.58
2023-02-14T05:59:33.632Z,15.57
2023-02-14T06:02:00.493Z,15.56
2023-02-14T06:04:27.333Z,15.52
2023-02-14T06:06:54.306Z,15.58
2023-02-14T06:09:21.230Z,15.62
2023-02-14T06:11:48.112Z,15.74
2023-02-14T06:14:15.126Z,15.78
2023-02-14T06:16:42.062Z,15.85
2023-02-14T06:19:08.931Z,15.88
2023-02-14T06:21:36.122Z,15.90
2023-02-14T06:24:03.134Z,15.92
2023-02-14T06:26:30.015Z,15.88
2023-02-14T06:28:58.612Z,15.92
2023-02-14T06:31:26.334Z,15.71
2023-02-14T06:33:53.757Z,15.72
2023-02-14T06:36:21.181Z,15.74
2023-02-14T06:38:48.713Z,15.78
2023-02-14T06:41:19.948Z,15.78
2023-02-14T06:43:50.392Z,15.89
2023-02-14T06:46:18.702Z,15.93
2023-02-14T06:48:45.918Z,15.96
2023-02-14T06:51:13.067Z,16.00
2023-02-14T06:53:40.106Z,16.03
2023-02-14T06:56:07.496Z,15.78
2023-02-14T06:58:34.514Z,15.30
2023-02-14T07:01:01.834Z,15.40
2023-02-14T07:03:29.046Z,15.46
2023-02-14T07:05:58.531Z,15.41
2023-02-14T07:08:26.394Z,15.48
2023-02-14T07:10:57.746Z,15.42
2023-02-14T07:13:25.519Z,15.45
2023-02-14T07:15:52.434Z,15.45
2023-02-14T07:18:19.303Z,15.45
2023-02-14T07:20:46.226Z,15.46
2023-02-14T07:23:13.084Z,15.09
2023-02-14T07:25:41.033Z,14.83
2023-02-14T07:28:07.940Z,14.68
2023-02-14T07:30:34.975Z,14.81
2023-02-14T07:33:02.020Z,14.87
2023-02-14T07:35:29.013Z,14.89
2023-02-14T07:37:55.854Z,14.90
2023-02-14T07:40:22.882Z,14.90
2023-02-14T07:42:54.604Z,14.82
2023-02-14T07:45:22.585Z,14.88
2023-02-14T07:47:51.783Z,14.88
2023-02-14T07:50:19.462Z,14.83
2023-02-14T07:52:46.567Z,14.93
2023-02-14T07:55:13.879Z,15.10
2023-02-14T07:57:41.003Z,15.17
2023-02-14T08:00:08.847Z,15.18
2023-02-14T08:02:36.268Z,15.21
2023-02-14T08:05:03.313Z,15.36
2023-02-14T08:07:30.255Z,15.43
2023-02-14T08:09:57.347Z,15.48
2023-02-14T08:12:42.916Z,15.50
2023-02-14T08:15:28.562Z,15.51
2023-02-14T08:17:57.016Z,15.55
2023-02-14T08:20:23.982Z,15.58
2023-02-14T08:22:51.162Z,15.59
2023-02-14T08:25:18.380Z,15.62
2023-02-14T08:27:45.486Z,15.65
2023-02-14T08:30:13.022Z,15.66
2023-02-14T08:32:40.821Z,15.70
2023-02-14T08:35:08.362Z,15.70
2023-02-14T08:37:35.479Z,15.77
2023-02-14T08:40:02.639Z,15.75
2023-02-14T08:42:30.238Z,15.85
2023-02-14T08:44:57.178Z,15.86
2023-02-14T08:47:24.293Z,15.86
2023-02-14T08:49:52.306Z,15.85
2023-02-14T08:52:21.941Z,15.91
2023-02-14T08:54:49.008Z,15.93
2023-02-14T08:57:19.013Z,15.93
2023-02-14T08:59:45.923Z,15.97
2023-02-14T09:02:19.419Z,16.01
2023-02-14T09:04:46.353Z,16.01
2023-02-14T09:07:13.664Z,16.04
2023-02-14T09:09:40.839Z,16.07
2023-02-14T09:12:09.392Z,16.02
2023-02-14T09:14:37.831Z,16.12
2023-02-14T09:17:06.088Z,16.05
2023-02-14T09:19:34.770Z,16.04
2023-02-14T09:22:04.228Z,16.05
2023-02-14T09:24:32.639Z,16.01
2023-02-14T09:27:00.082Z,16.11
2023-02-14T09:29:28.611Z,16.11
2023-02-14T09:31:58.966Z,16.11
2023-02-14T09:34:27.627Z,16.11
2023-02-14T09:36:54.622Z,16.09
2023-02-14T09:39:21.735Z,16.09
2023-02-14T09:41:51.665Z,16.06
2023-02-14T09:44:33.732Z,16.11
2023-02-14T09:47:16.237Z,16.06
2023-02-14T09:49:44.246Z,16.15
2023-02-14T09:52:15.696Z,16.08
2023-02-14T09:54:47.422Z,16.17
2023-02-14T09:57:35.783Z,16.17
2023-02-14T10:00:11.871Z,16.14
2023-02-14T10:03:03.267Z,16.16
2023-02-14T10:05:37.729Z,16.10
2023-02-14T10:08:43.073Z,16.16
2023-02-14T10:11:15.679Z,16.11
2023-02-14T10:13:50.338Z,16.18
2023-02-14T10:16:33.198Z,16.18
2023-02-14T10:19:15.094Z,16.16
2023-02-14T10:21:49.284Z,16.19
2023-02-14T10:24:34.292Z,16.20
2023-02-14T10:27:17.765Z,16.22
2023-02-14T10:29:45.431Z,16.19
2023-02-14T10:32:19.169Z,16.16
2023-02-14T10:34:51.658Z,16.19
2023-02-14T10:37:23.339Z,16.21
2023-02-14T10:40:02.148Z,16.22
2023-02-14T10:42:56.724Z,16.21
2023-02-14T10:45:39.151Z,16.22
2023-02-14T10:48:21.049Z,16.21
2023-02-14T10:51:23.537Z,16.23
2023-02-14T10:54:09.445Z,16.22
2023-02-14T10:56:42.575Z,16.21
2023-02-14T10:59:22.179Z,16.23
2023-02-14T11:01:52.720Z,16.15
2023-02-14T11:04:22.719Z,16.16
2023-02-14T11:06:51.249Z,16.13
2023-02-14T11:09:19.161Z,16.15
2023-02-14T11:11:49.270Z,16.10
2023-02-14T11:14:23.486Z,16.11
2023-02-14T11:16:54.617Z,16.14
2023-02-14T11:19:31.435Z,16.17
2023-02-14T11:22:01.888Z,16.13
2023-02-14T11:24:35.279Z,16.09
2023-02-14T11:27:11.188Z,16.13
2023-02-14T11:29:41.211Z,16.11
2023-02-14T11:32:26.252Z,16.12
2023-02-14T11:35:02.344Z,16.13
2023-02-14T11:37:38.769Z,16.14
2023-02-14T11:40:07.152Z,16.05
2023-02-14T11:42:47.785Z,16.11
2023-02-14T11:45:31.971Z,16.16
2023-02-14T11:48:19.930Z,16.14
2023-02-14T11:50:58.186Z,15.96
2023-02-14T11:53:28.851Z,16.02
2023-02-14T11:56:01.125Z,16.09
2023-02-14T11:58:36.463Z,16.13
2023-02-14T12:01:04.844Z,16.15
2023-02-14T12:03:44.696Z,16.22
2023-02-14T12:06:13.374Z,16.23
2023-02-14T12:08:42.232Z,16.13
2023-02-14T12:11:23.994Z,16.23
2023-02-14T12:13:55.718Z,16.21
2023-02-14T12:17:06.259Z,16.24
2023-02-14T12:20:07.134Z,16.26
2023-02-14T12:22:41.817Z,16.26
2023-02-14T12:25:43.314Z,16.25
2023-02-14T12:28:12.821Z,16.22
2023-02-14T12:30:41.189Z,16.18
2023-02-14T12:33:21.350Z,16.08
2023-02-14T12:35:59.904Z,15.97
2023-02-14T12:38:36.043Z,15.86
2023-02-14T12:41:05.784Z,15.77
2023-02-14T12:43:59.031Z,15.71
2023-02-14T12:46:41.014Z,15.65
2023-02-14T12:49:32.071Z,15.63
2023-02-14T12:52:23.658Z,15.59
2023-02-14T12:55:29.021Z,15.55
2023-02-14T12:58:20.915Z,15.52
2023-02-14T13:01:09.483Z,15.41
2023-02-14T13:03:39.420Z,15.44
2023-02-14T13:06:24.572Z,15.44
2023-02-14T13:08:51.480Z,15.42
2023-02-14T13:11:36.969Z,15.38
2023-02-14T13:14:29.966Z,15.37
2023-02-14T13:17:03.809Z,15.39
2023-02-14T13:19:42.562Z,15.36
2023-02-14T13:22:15.375Z,15.32
2023-02-14T13:24:53.553Z,15.32
2023-02-14T13:27:24.109Z,15.31
2023-02-14T13:29:54.849Z,15.30
2023-02-14T13:32:25.173Z,15.28
2023-02-14T13:34:52.150Z,15.26
2023-02-14T13:37:22.713Z,15.24
2023-02-14T13:39:55.623Z,15.21
2023-02-14T13:42:47.342Z,15.21
2023-02-14T13:45:35.672Z,15.22
2023-02-14T13:48:20.751Z,15.20
2023-02-14T13:50:58.648Z,15.21
2023-02-14T13:53:47.296Z,15.21
2023-02-14T13:56:16.962Z,15.08
2023-02-14T13:58:54.728Z,15.13
2023-02-14T14:01:48.491Z,15.12
2023-02-14T14:04:32.207Z,15.12
2023-02-14T14:07:05.064Z,15.12
2023-02-14T14:09:44.201Z,15.04
2023-02-14T14:12:37.961Z,15.10
2023-02-14T14:15:05.104Z,15.10
2023-02-14T14:17:42.516Z,14.89
2023-02-14T14:20:21.745Z,14.84
2023-02-14T14:23:29.774Z,15.10
2023-02-14T14:25:56.869Z,15.23
2023-02-14T14:28:27.598Z,15.30
2023-02-14T14:30:55.087Z,15.12
2023-02-14T14:33:30.049Z,14.80
2023-02-14T14:36:10.507Z,14.61
2023-02-14T14:38:50.134Z,14.39
2023-02-14T14:41:17.802Z,14.33
2023-02-14T14:43:45.037Z,14.19
2023-02-14T14:46:13.977Z,14.22
2023-02-14T14:48:47.440Z,14.45
2023-02-14T14:51:31.528Z,14.73
2023-02-14T14:54:20.550Z,14.87
2023-02-14T14:56:47.647Z,14.91
2023-02-14T14:59:28.265Z,14.96
2023-02-14T15:01:55.777Z,14.94
2023-02-14T15:04:31.787Z,15.00
2023-02-14T15:07:24.562Z,15.01
2023-02-14T15:09:51.645Z,14.81
2023-02-14T15:12:41.510Z,14.63
2023-02-14T15:15:12.854Z,14.49
2023-02-14T15:17:42.587Z,14.44
2023-02-14T15:20:22.074Z,14.38
2023-02-14T15:22:51.299Z,14.56
2023-02-14T15:25:26.932Z,14.74
2023-02-14T15:27:54.884Z,14.94
2023-02-14T15:30:38.270Z,15.01
2023-02-14T15:33:07.009Z,15.03
2023-02-14T15:35:38.445Z,15.06
2023-02-14T15:38:07.504Z,15.12
2023-02-14T15:40:36.107Z,15.15
2023-02-14T15:43:22.338Z,15.18
2023-02-14T15:45:53.572Z,15.19
2023-02-14T15:48:38.189Z,15.07
2023-02-14T15:51:06.682Z,15.13
2023-02-14T15:53:50.442Z,15.18
2023-02-14T15:56:35.604Z,15.16
2023-02-14T15:59:12.977Z,15.21
2023-02-14T16:01:42.503Z,15.29
2023-02-14T16:04:11.364Z,15.29
2023-02-14T16:06:40.287Z,15.32
2023-02-14T16:09:25.612Z,15.29
2023-02-14T16:11:53.852Z,15.42
2023-02-14T16:14:45.440Z,15.40
2023-02-14T16:17:14.499Z,15.31
2023-02-14T16:19:46.525Z,15.36
2023-02-14T16:22:26.103Z,15.22
2023-02-14T16:24:53.580Z,15.32
2023-02-14T16:27:20.483Z,15.19
2023-02-14T16:29:47.504Z,15.26
2023-02-14T16:32:21.433Z,15.35
2023-02-14T16:34:49.096Z,15.32
2023-02-14T16:37:40.461Z,15.40
2023-02-14T16:40:14.095Z,15.41
2023-02-14T16:42:42.415Z,15.37
2023-02-14T16:45:19.777Z,15.41
2023-02-14T16:47:48.402Z,15.40
2023-02-14T16:50:15.998Z,15.46
2023-02-14T16:52:45.921Z,15.49
2023-02-14T16:55:20.225Z,15.51
2023-02-14T16:57:49.581Z,15.51
2023-02-14T17:00:17.112Z,15.55
2023-02-14T17:02:44.807Z,15.55
2023-02-14T17:05:19.959Z,15.47
2023-02-14T17:07:48.712Z,15.41
2023-02-14T17:10:26.050Z,15.50
2023-02-14T17:12:53.493Z,15.59
2023-02-14T17:15:22.766Z,15.67
2023-02-14T17:17:52.484Z,15.72
2023-02-14T17:20:20.820Z,15.79
2023-02-14T17:22:49.916Z,15.78
2023-02-14T17:25:17.139Z,15.87
2023-02-14T17:27:44.855Z,16.01
2023-02-14T17:30:14.189Z,16.21
2023-02-14T17:32:42.897Z,16.37
2023-02-14T17:35:10.822Z,16.50
2023-02-14T17:37:38.596Z,16.62
2023-02-14T17:40:06.310Z,16.74
2023-02-14T17:42:34.404Z,16.84
2023-02-14T17:45:06.348Z,16.78
2023-02-14T17:47:35.068Z,16.59
2023-02-14T17:50:06.333Z,16.77
2023-02-14T17:52:33.417Z,16.91
2023-02-14T17:55:02.420Z,17.04
2023-02-14T17:57:29.538Z,17.04
2023-02-14T17:59:58.818Z,17.11
2023-02-14T18:02:26.848Z,17.22
2023-02-14T18:04:54.059Z,17.26
2023-02-14T18:07:21.657Z,17.22
2023-02-14T18:09:48.653Z,17.27
2023-02-14T18:12:15.851Z,17.28
2023-02-14T18:14:43.417Z,17.32
2023-02-14T18:17:13.371Z,17.37
2023-02-14T18:19:42.264Z,17.20
2023-02-14T18:22:09.473Z,17.23
2023-02-14T18:24:37.329Z,17.26
2023-02-14T18:27:06.715Z,17.22
2023-02-14T18:29:35.073Z,17.08
2023-02-14T18:32:02.883Z,17.09
2023-02-14T18:34:30.322Z,17.13
2023-02-14T18:36:58.053Z,17.16
2023-02-14T18:39:26.178Z,17.15
2023-02-14T18:41:53.243Z,17.16
2023-02-14T18:44:23.456Z,17.29
2023-02-14T18:46:50.501Z,17.37
2023-02-14T18:49:17.496Z,17.48
2023-02-14T18:51:44.609Z,17.59
2023-02-14T18:54:11.797Z,17.71
2023-02-14T18:56:39.340Z,17.82
2023-02-14T18:59:09.125Z,17.84
2023-02-14T19:01:40.036Z,17.94
2023-02-14T19:04:10.501Z,17.99
2023-02-14T19:06:37.740Z,18.02
2023-02-14T19:09:09.834Z,18.01
2023-02-14T19:11:37.415Z,18.00
2023-02-14T19:14:10.650Z,18.06
2023-02-14T19:16:42.469Z,18.10
2023-02-14T19:19:10.563Z,18.15
2023-02-14T19:21:37.876Z,18.21
2023-02-14T19:24:07.674Z,18.25
2023-02-14T19:26:40.863Z,18.30
2023-02-14T19:29:16.794Z,18.29
2023-02-14T19:31:48.771Z,18.20
2023-02-14T19:34:20.196Z,18.21
2023-02-14T19:36:48.204Z,18.28
2023-02-14T19:39:16.186Z,18.37
2023-02-14T19:41:46.314Z,18.39
2023-02-14T19:44:15.544Z,18.45
2023-02-14T19:46:45.214Z,18.48
2023-02-14T19:49:18.220Z,18.53
2023-02-14T19:51:46.550Z,18.57
2023-02-14T19:54:14.990Z,18.56
2023-02-14T19:56:45.093Z,18.64
2023-02-14T19:59:17.065Z,18.67
2023-02-14T20:01:50.062Z,18.67
2023-02-14T20:04:23.580Z,18.73
2023-02-14T20:06:52.229Z,18.75
2023-02-14T20:09:22.627Z,18.87
2023-02-14T20:11:55.412Z,18.87
2023-02-14T20:14:26.577Z,18.91
2023-02-14T20:16:57.344Z,18.94
2023-02-14T20:19:47.400Z,18.94
2023-02-14T20:22:18.047Z,18.95
2023-02-14T20:24:48.920Z,19.01
2023-02-14T20:27:18.833Z,19.05
2023-02-14T20:29:46.958Z,19.10
2023-02-14T20:32:18.962Z,19.05
2023-02-14T20:34:46.234Z,19.07
2023-02-14T20:37:13.695Z,19.12
2023-02-14T20:39:42.381Z,19.13
2023-02-14T20:42:11.191Z,19.09
2023-02-14T20:44:38.625Z,19.01
2023-02-14T20:47:07.950Z,19.02
2023-02-14T20:49:36.494Z,19.08
2023-02-14T20:52:04.339Z,19.06
2023-02-14T20:54:33.070Z,19.06
2023-02-14T20:57:00.822Z,18.99
2023-02-14T20:59:29.215Z,18.99
2023-02-14T21:02:01.118Z,19.02
2023-02-14T21:04:30.957Z,18.94
2023-02-14T21:07:00.797Z,18.91
2023-02-14T21:09:29.202Z,18.94
2023-02-14T21:11:58.751Z,18.92
2023-02-14T21:14:25.988Z,18.91
2023-02-14T21:16:53.573Z,18.90
2023-02-14T21:19:21.519Z,18.82
2023-02-14T21:21:48.824Z,18.89
2023-02-14T21:24:16.809Z,18.82
2023-02-14T21:26:44.581Z,18.79
2023-02-14T21:29:12.573Z,18.76
2023-02-14T21:31:40.212Z,18.75
2023-02-14T21:34:09.079Z,18.43
2023-02-14T21:36:37.655Z,18.33
2023-02-14T21:39:07.762Z,18.42
2023-02-14T21:41:37.016Z,18.37
2023-02-14T21:44:05.749Z,18.45
2023-02-14T21:46:36.343Z,18.39
2023-02-14T21:49:24.074Z,18.37
2023-02-14T21:51:52.786Z,18.34
2023-02-14T21:54:20.326Z,18.39
2023-02-14T21:56:49.756Z,18.37
2023-02-14T21:59:18.184Z,18.35
2023-02-14T22:01:47.066Z,18.31
2023-02-14T22:04:14.705Z,18.20
2023-02-14T22:06:42.699Z,17.93
2023-02-14T22:09:13.519Z,17.75
2023-02-14T22:11:42.290Z,17.60
2023-02-14T22:14:09.638Z,17.47
2023-02-14T22:16:38.663Z,17.37
2023-02-14T22:19:07.571Z,17.28
2023-02-14T22:21:35.695Z,17.15
2023-02-14T22:24:04.455Z,17.09
2023-02-14T22:26:43.145Z,17.02
2023-02-14T22:29:14.422Z,16.95
2023-02-14T22:31:45.417Z,16.95
2023-02-14T22:34:15.674Z,16.85
2023-02-14T22:36:42.963Z,16.79
2023-02-14T22:39:15.961Z,16.71
2023-02-14T22:41:45.655Z,16.64
2023-02-14T22:44:14.372Z,16.59
2023-02-14T22:46:41.602Z,16.48
2023-02-14T22:49:09.986Z,16.49
2023-02-14T22:51:38.882Z,16.43
2023-02-14T22:54:10.760Z,16.38
2023-02-14T22:56:40.342Z,16.34
2023-02-14T22:59:19.571Z,16.22
2023-02-14T23:01:49.602Z,16.20
2023-02-14T23:04:18.410Z,16.12
2023-02-14T23:06:46.061Z,16.15
2023-02-14T23:09:14.309Z,16.11
2023-02-14T23:11:43.664Z,16.05
2023-02-14T23:14:33.135Z,16.02
2023-02-14T23:17:15.267Z,15.98
2023-02-14T23:20:01.850Z,15.95
2023-02-14T23:22:49.171Z,15.92
2023-02-14T23:25:16.186Z,15.87
2023-02-14T23:27:45.488Z,15.82
2023-02-14T23:30:18.972Z,15.79
2023-02-14T23:32:46.579Z,15.76
2023-02-14T23:35:13.605Z,15.72
2023-02-14T23:37:40.648Z,15.70
2023-02-14T23:40:08.443Z,15.67
2023-02-14T23:42:35.417Z,15.63
2023-02-14T23:45:20.917Z,15.61
2023-02-14T23:47:48.134Z,15.53
2023-02-14T23:50:15.886Z,15.49
2023-02-14T23:52:44.832Z,15.51
2023-02-14T23:55:12.158Z,15.49
2023-02-14T23:57:39.768Z,15.41
